Goshen, New York
Current Conditions -  °F | °C
As of 2:54 PM on Thursday 30 Oct 2014 (Local Time) from KMGJ Reporting Station
NA  
Wind Chill: 54°   Ceiling: NA
Heat Index: 54°   Visibility: 10mi
Dew Point: 34°   Wind: 12mph
Humidity: 47%   Direction: 290°WNW
Pressure: 29.97"   Gusts: NA
Location:  41.41°N, 74.32°W
Report Text: KMGJ 301854Z AUTO 29010KT 10SM 12/01 A2997 RMK AO2 SLP150 T01220011 TSNO $
Loading
Personal Weather Stations






























Interactive Weather Map New forecast layout! Learn more

10-Day Weather Forecast

Advertisements
Track Severe Weather on mobile